sensor_id;sensor_type;location;lat;lon;timestamp;P1;durP1;ratioP1;P2;durP2;ratioP2
47784;SDS011;35233;55.686;37.848;2022-11-15T00:01:42;2.47;;;1.42;;
47784;SDS011;35233;55.686;37.848;2022-11-15T00:04:07;3.97;;;1.80;;
47784;SDS011;35233;55.686;37.848;2022-11-15T00:06:35;3.65;;;1.75;;
47784;SDS011;35233;55.686;37.848;2022-11-15T00:09:01;2.88;;;1.55;;
47784;SDS011;35233;55.686;37.848;2022-11-15T00:11:27;2.90;;;1.92;;
47784;SDS011;35233;55.686;37.848;2022-11-15T00:13:56;3.50;;;1.65;;
47784;SDS011;35233;55.686;37.848;2022-11-15T00:16:23;3.13;;;1.85;;
47784;SDS011;35233;55.686;37.848;2022-11-15T00:18:49;2.20;;;1.67;;
47784;SDS011;35233;55.686;37.848;2022-11-15T00:21:16;2.72;;;1.73;;
47784;SDS011;35233;55.686;37.848;2022-11-15T00:23:42;2.67;;;1.98;;
47784;SDS011;35233;55.686;37.848;2022-11-15T00:26:10;2.35;;;1.60;;
47784;SDS011;35233;55.686;37.848;2022-11-15T00:28:38;2.90;;;1.60;;
47784;SDS011;35233;55.686;37.848;2022-11-15T00:31:05;2.47;;;1.60;;
47784;SDS011;35233;55.686;37.848;2022-11-15T00:33:32;2.60;;;1.92;;
47784;SDS011;35233;55.686;37.848;2022-11-15T00:36:02;2.47;;;1.33;;
47784;SDS011;35233;55.686;37.848;2022-11-15T00:38:30;2.92;;;1.80;;
47784;SDS011;35233;55.686;37.848;2022-11-15T00:40:57;3.00;;;1.50;;
47784;SDS011;35233;55.686;37.848;2022-11-15T00:43:23;1.88;;;1.48;;
47784;SDS011;35233;55.686;37.848;2022-11-15T00:45:48;1.80;;;1.42;;
47784;SDS011;35233;55.686;37.848;2022-11-15T00:48:14;3.40;;;1.90;;
47784;SDS011;35233;55.686;37.848;2022-11-15T00:50:39;2.25;;;1.50;;
47784;SDS011;35233;55.686;37.848;2022-11-15T00:53:05;2.60;;;1.73;;
47784;SDS011;35233;55.686;37.848;2022-11-15T00:55:30;2.50;;;1.65;;
47784;SDS011;35233;55.686;37.848;2022-11-15T00:57:56;2.53;;;1.50;;
47784;SDS011;35233;55.686;37.848;2022-11-15T01:00:21;3.33;;;1.80;;
47784;SDS011;35233;55.686;37.848;2022-11-15T01:02:47;3.22;;;1.70;;
47784;SDS011;35233;55.686;37.848;2022-11-15T01:05:12;2.90;;;1.88;;
47784;SDS011;35233;55.686;37.848;2022-11-15T01:07:38;2.03;;;1.50;;
47784;SDS011;35233;55.686;37.848;2022-11-15T01:10:03;2.63;;;1.63;;
47784;SDS011;35233;55.686;37.848;2022-11-15T01:12:29;3.38;;;1.70;;
47784;SDS011;35233;55.686;37.848;2022-11-15T01:14:55;5.07;;;1.90;;
47784;SDS011;35233;55.686;37.848;2022-11-15T01:17:21;3.17;;;1.77;;
47784;SDS011;35233;55.686;37.848;2022-11-15T01:19:46;2.65;;;1.63;;
47784;SDS011;35233;55.686;37.848;2022-11-15T01:22:12;4.63;;;1.52;;
47784;SDS011;35233;55.686;37.848;2022-11-15T01:24:37;4.10;;;1.98;;
47784;SDS011;35233;55.686;37.848;2022-11-15T01:27:03;3.30;;;1.90;;
47784;SDS011;35233;55.686;37.848;2022-11-15T01:29:28;1.77;;;1.42;;
47784;SDS011;35233;55.686;37.848;2022-11-15T01:31:54;3.72;;;1.92;;
47784;SDS011;35233;55.686;37.848;2022-11-15T01:34:19;4.25;;;1.77;;
47784;SDS011;35233;55.686;37.848;2022-11-15T01:36:45;3.92;;;1.75;;
47784;SDS011;35233;55.686;37.848;2022-11-15T01:39:11;1.67;;;1.55;;
47784;SDS011;35233;55.686;37.848;2022-11-15T01:41:36;3.50;;;1.70;;
47784;SDS011;35233;55.686;37.848;2022-11-15T01:47:28;3.28;;;1.60;;
47784;SDS011;35233;55.686;37.848;2022-11-15T01:50:00;1.88;;;1.60;;
47784;SDS011;35233;55.686;37.848;2022-11-15T01:52:30;2.33;;;1.67;;
47784;SDS011;35233;55.686;37.848;2022-11-15T01:55:03;1.92;;;1.70;;
47784;SDS011;35233;55.686;37.848;2022-11-15T01:57:39;1.73;;;1.63;;
47784;SDS011;35233;55.686;37.848;2022-11-15T02:00:08;2.28;;;1.70;;
47784;SDS011;35233;55.686;37.848;2022-11-15T02:02:34;4.97;;;2.05;;
47784;SDS011;35233;55.686;37.848;2022-11-15T02:05:02;4.20;;;1.73;;
47784;SDS011;35233;55.686;37.848;2022-11-15T02:07:28;2.67;;;1.70;;
47784;SDS011;35233;55.686;37.848;2022-11-15T02:09:54;2.55;;;1.70;;
47784;SDS011;35233;55.686;37.848;2022-11-15T02:12:22;3.15;;;1.52;;
47784;SDS011;35233;55.686;37.848;2022-11-15T02:14:50;2.10;;;1.80;;
47784;SDS011;35233;55.686;37.848;2022-11-15T02:31:26;3.20;;;1.60;;
47784;SDS011;35233;55.686;37.848;2022-11-15T02:37:16;2.92;;;1.73;;
47784;SDS011;35233;55.686;37.848;2022-11-15T02:40:17;2.22;;;1.65;;
47784;SDS011;35233;55.686;37.848;2022-11-15T02:42:57;2.15;;;1.52;;
47784;SDS011;35233;55.686;37.848;2022-11-15T02:45:50;2.83;;;1.63;;
47784;SDS011;35233;55.686;37.848;2022-11-15T02:48:21;2.13;;;1.70;;
47784;SDS011;35233;55.686;37.848;2022-11-15T02:50:49;2.90;;;1.65;;
47784;SDS011;35233;55.686;37.848;2022-11-15T02:53:16;2.38;;;1.50;;
47784;SDS011;35233;55.686;37.848;2022-11-15T02:55:43;5.43;;;1.70;;
47784;SDS011;35233;55.686;37.848;2022-11-15T03:09:02;1.85;;;1.45;;
47784;SDS011;35233;55.686;37.848;2022-11-15T03:14:06;2.90;;;1.73;;
47784;SDS011;35233;55.686;37.848;2022-11-15T03:19:47;2.63;;;1.70;;
47784;SDS011;35233;55.686;37.848;2022-11-15T03:22:19;3.17;;;1.70;;
47784;SDS011;35233;55.686;37.848;2022-11-15T03:24:50;3.33;;;1.80;;
47784;SDS011;35233;55.686;37.848;2022-11-15T03:27:21;3.20;;;1.95;;
47784;SDS011;35233;55.686;37.848;2022-11-15T03:29:50;5.68;;;1.80;;
47784;SDS011;35233;55.686;37.848;2022-11-15T03:32:21;2.67;;;1.73;;
47784;SDS011;35233;55.686;37.848;2022-11-15T03:34:52;3.10;;;1.60;;
47784;SDS011;35233;55.686;37.848;2022-11-15T03:37:27;4.38;;;1.80;;
47784;SDS011;35233;55.686;37.848;2022-11-15T03:40:15;2.50;;;1.70;;
47784;SDS011;35233;55.686;37.848;2022-11-15T03:42:43;5.18;;;2.35;;
47784;SDS011;35233;55.686;37.848;2022-11-15T03:45:19;4.35;;;1.95;;
47784;SDS011;35233;55.686;37.848;2022-11-15T03:50:29;2.15;;;1.70;;
47784;SDS011;35233;55.686;37.848;2022-11-15T03:52:55;3.40;;;1.63;;
47784;SDS011;35233;55.686;37.848;2022-11-15T03:55:21;4.40;;;1.92;;
47784;SDS011;35233;55.686;37.848;2022-11-15T03:57:48;1.90;;;1.50;;
47784;SDS011;35233;55.686;37.848;2022-11-15T04:00:16;2.90;;;1.60;;
47784;SDS011;35233;55.686;37.848;2022-11-15T04:02:42;2.28;;;1.52;;
47784;SDS011;35233;55.686;37.848;2022-11-15T04:05:07;2.53;;;1.52;;
47784;SDS011;35233;55.686;37.848;2022-11-15T04:07:33;6.03;;;2.20;;
47784;SDS011;35233;55.686;37.848;2022-11-15T04:09:59;3.20;;;1.75;;
47784;SDS011;35233;55.686;37.848;2022-11-15T04:12:30;2.97;;;1.65;;
47784;SDS011;35233;55.686;37.848;2022-11-15T04:15:01;2.50;;;1.73;;
47784;SDS011;35233;55.686;37.848;2022-11-15T04:17:54;4.43;;;1.75;;
47784;SDS011;35233;55.686;37.848;2022-11-15T04:23:13;4.50;;;1.85;;
47784;SDS011;35233;55.686;37.848;2022-11-15T04:28:32;3.72;;;1.45;;
47784;SDS011;35233;55.686;37.848;2022-11-15T04:30:57;4.03;;;1.90;;
47784;SDS011;35233;55.686;37.848;2022-11-15T04:33:23;4.72;;;1.92;;
47784;SDS011;35233;55.686;37.848;2022-11-15T04:35:49;3.80;;;1.65;;
47784;SDS011;35233;55.686;37.848;2022-11-15T04:38:33;3.42;;;1.95;;
47784;SDS011;35233;55.686;37.848;2022-11-15T04:41:00;4.90;;;2.15;;
47784;SDS011;35233;55.686;37.848;2022-11-15T04:43:25;2.88;;;1.60;;
47784;SDS011;35233;55.686;37.848;2022-11-15T04:45:51;4.97;;;1.65;;
47784;SDS011;35233;55.686;37.848;2022-11-15T04:48:18;4.30;;;2.08;;
47784;SDS011;35233;55.686;37.848;2022-11-15T04:50:43;3.95;;;1.90;;
47784;SDS011;35233;55.686;37.848;2022-11-15T04:53:09;2.95;;;1.90;;
47784;SDS011;35233;55.686;37.848;2022-11-15T04:55:34;3.50;;;2.10;;
47784;SDS011;35233;55.686;37.848;2022-11-15T04:58:00;4.30;;;1.85;;
47784;SDS011;35233;55.686;37.848;2022-11-15T05:00:27;2.30;;;1.83;;
47784;SDS011;35233;55.686;37.848;2022-11-15T05:02:54;6.75;;;2.17;;
47784;SDS011;35233;55.686;37.848;2022-11-15T05:05:38;3.83;;;1.83;;
47784;SDS011;35233;55.686;37.848;2022-11-15T05:08:04;4.35;;;2.05;;
47784;SDS011;35233;55.686;37.848;2022-11-15T05:10:30;4.40;;;2.05;;
47784;SDS011;35233;55.686;37.848;2022-11-15T05:12:55;5.72;;;2.17;;
47784;SDS011;35233;55.686;37.848;2022-11-15T05:15:21;6.60;;;2.25;;
47784;SDS011;35233;55.686;37.848;2022-11-15T05:17:46;6.03;;;2.10;;
47784;SDS011;35233;55.686;37.848;2022-11-15T05:20:12;3.80;;;1.90;;
47784;SDS011;35233;55.686;37.848;2022-11-15T05:22:38;4.80;;;2.05;;
47784;SDS011;35233;55.686;37.848;2022-11-15T05:25:04;3.80;;;2.00;;
47784;SDS011;35233;55.686;37.848;2022-11-15T05:27:30;6.55;;;2.42;;
47784;SDS011;35233;55.686;37.848;2022-11-15T05:29:55;6.15;;;2.80;;
47784;SDS011;35233;55.686;37.848;2022-11-15T05:32:21;9.38;;;2.63;;
47784;SDS011;35233;55.686;37.848;2022-11-15T05:34:46;11.55;;;3.10;;
47784;SDS011;35233;55.686;37.848;2022-11-15T05:37:13;8.05;;;3.08;;
47784;SDS011;35233;55.686;37.848;2022-11-15T05:39:39;9.15;;;3.55;;
47784;SDS011;35233;55.686;37.848;2022-11-15T05:44:33;6.05;;;3.08;;
47784;SDS011;35233;55.686;37.848;2022-11-15T05:47:01;7.72;;;3.10;;
47784;SDS011;35233;55.686;37.848;2022-11-15T05:49:30;7.25;;;3.30;;
47784;SDS011;35233;55.686;37.848;2022-11-15T05:51:59;7.72;;;3.10;;
47784;SDS011;35233;55.686;37.848;2022-11-15T05:54:25;6.95;;;3.20;;
47784;SDS011;35233;55.686;37.848;2022-11-15T05:56:51;7.15;;;2.92;;
47784;SDS011;35233;55.686;37.848;2022-11-15T05:59:17;6.38;;;3.00;;
47784;SDS011;35233;55.686;37.848;2022-11-15T06:01:43;8.88;;;3.10;;
47784;SDS011;35233;55.686;37.848;2022-11-15T06:04:09;6.45;;;2.80;;
47784;SDS011;35233;55.686;37.848;2022-11-15T06:06:35;9.50;;;3.47;;
47784;SDS011;35233;55.686;37.848;2022-11-15T06:09:00;7.15;;;3.10;;
47784;SDS011;35233;55.686;37.848;2022-11-15T06:11:26;6.78;;;3.15;;
47784;SDS011;35233;55.686;37.848;2022-11-15T06:13:51;5.78;;;2.88;;
47784;SDS011;35233;55.686;37.848;2022-11-15T06:16:16;4.57;;;2.60;;
47784;SDS011;35233;55.686;37.848;2022-11-15T06:18:42;5.68;;;2.83;;
47784;SDS011;35233;55.686;37.848;2022-11-15T06:21:08;6.22;;;2.90;;
47784;SDS011;35233;55.686;37.848;2022-11-15T06:23:34;5.55;;;2.55;;
47784;SDS011;35233;55.686;37.848;2022-11-15T06:26:00;7.88;;;3.08;;
47784;SDS011;35233;55.686;37.848;2022-11-15T06:28:28;6.22;;;2.58;;
47784;SDS011;35233;55.686;37.848;2022-11-15T06:30:55;5.30;;;3.08;;
47784;SDS011;35233;55.686;37.848;2022-11-15T06:33:20;5.93;;;2.75;;
47784;SDS011;35233;55.686;37.848;2022-11-15T06:35:46;4.55;;;2.50;;
47784;SDS011;35233;55.686;37.848;2022-11-15T06:38:11;5.07;;;2.60;;
47784;SDS011;35233;55.686;37.848;2022-11-15T06:40:38;5.60;;;2.60;;
47784;SDS011;35233;55.686;37.848;2022-11-15T06:43:04;4.90;;;2.80;;
47784;SDS011;35233;55.686;37.848;2022-11-15T06:45:30;6.82;;;2.78;;
47784;SDS011;35233;55.686;37.848;2022-11-15T06:47:56;7.50;;;2.90;;
47784;SDS011;35233;55.686;37.848;2022-11-15T06:50:22;7.25;;;3.05;;
47784;SDS011;35233;55.686;37.848;2022-11-15T06:52:48;7.82;;;3.22;;
47784;SDS011;35233;55.686;37.848;2022-11-15T06:55:14;9.07;;;2.95;;
47784;SDS011;35233;55.686;37.848;2022-11-15T06:57:46;6.93;;;3.35;;
47784;SDS011;35233;55.686;37.848;2022-11-15T07:00:14;8.85;;;3.67;;
47784;SDS011;35233;55.686;37.848;2022-11-15T07:02:40;8.57;;;3.45;;
47784;SDS011;35233;55.686;37.848;2022-11-15T07:05:05;8.50;;;3.95;;
47784;SDS011;35233;55.686;37.848;2022-11-15T07:07:31;11.10;;;4.20;;
47784;SDS011;35233;55.686;37.848;2022-11-15T07:09:56;9.35;;;4.05;;
47784;SDS011;35233;55.686;37.848;2022-11-15T07:12:22;9.07;;;3.83;;
47784;SDS011;35233;55.686;37.848;2022-11-15T07:14:47;10.05;;;3.83;;
47784;SDS011;35233;55.686;37.848;2022-11-15T07:17:13;6.82;;;3.88;;
47784;SDS011;35233;55.686;37.848;2022-11-15T07:19:38;7.65;;;4.00;;
47784;SDS011;35233;55.686;37.848;2022-11-15T07:22:04;10.77;;;4.82;;
47784;SDS011;35233;55.686;37.848;2022-11-15T07:24:30;9.75;;;4.93;;
47784;SDS011;35233;55.686;37.848;2022-11-15T07:26:58;10.27;;;5.22;;
47784;SDS011;35233;55.686;37.848;2022-11-15T07:29:24;11.60;;;5.90;;
47784;SDS011;35233;55.686;37.848;2022-11-15T07:31:49;9.88;;;5.65;;
47784;SDS011;35233;55.686;37.848;2022-11-15T07:34:15;10.10;;;5.82;;
47784;SDS011;35233;55.686;37.848;2022-11-15T07:36:42;11.25;;;6.82;;
47784;SDS011;35233;55.686;37.848;2022-11-15T07:39:07;12.70;;;7.03;;
47784;SDS011;35233;55.686;37.848;2022-11-15T07:41:33;11.57;;;7.97;;
47784;SDS011;35233;55.686;37.848;2022-11-15T07:43:58;11.40;;;7.85;;
47784;SDS011;35233;55.686;37.848;2022-11-15T07:46:25;13.00;;;8.45;;
47784;SDS011;35233;55.686;37.848;2022-11-15T07:48:50;14.27;;;9.63;;
47784;SDS011;35233;55.686;37.848;2022-11-15T07:51:16;12.30;;;8.32;;
47784;SDS011;35233;55.686;37.848;2022-11-15T07:53:42;13.98;;;9.60;;
47784;SDS011;35233;55.686;37.848;2022-11-15T07:56:08;15.82;;;9.48;;
47784;SDS011;35233;55.686;37.848;2022-11-15T07:58:35;16.17;;;9.68;;
47784;SDS011;35233;55.686;37.848;2022-11-15T08:01:04;15.25;;;9.73;;
47784;SDS011;35233;55.686;37.848;2022-11-15T08:03:31;15.23;;;10.13;;
47784;SDS011;35233;55.686;37.848;2022-11-15T08:05:57;13.20;;;9.32;;
47784;SDS011;35233;55.686;37.848;2022-11-15T08:08:23;14.35;;;9.63;;
47784;SDS011;35233;55.686;37.848;2022-11-15T08:10:48;19.17;;;9.60;;
47784;SDS011;35233;55.686;37.848;2022-11-15T08:13:14;17.60;;;9.60;;
47784;SDS011;35233;55.686;37.848;2022-11-15T08:15:40;14.77;;;10.07;;
47784;SDS011;35233;55.686;37.848;2022-11-15T08:18:06;13.43;;;9.48;;
47784;SDS011;35233;55.686;37.848;2022-11-15T08:20:35;13.35;;;9.00;;
47784;SDS011;35233;55.686;37.848;2022-11-15T08:23:01;16.13;;;9.38;;
47784;SDS011;35233;55.686;37.848;2022-11-15T08:25:29;16.23;;;9.43;;
47784;SDS011;35233;55.686;37.848;2022-11-15T08:27:57;12.75;;;8.57;;
47784;SDS011;35233;55.686;37.848;2022-11-15T08:30:24;13.18;;;9.18;;
47784;SDS011;35233;55.686;37.848;2022-11-15T08:32:50;13.38;;;8.10;;
47784;SDS011;35233;55.686;37.848;2022-11-15T08:35:17;12.20;;;8.25;;
47784;SDS011;35233;55.686;37.848;2022-11-15T08:37:43;12.45;;;8.02;;
47784;SDS011;35233;55.686;37.848;2022-11-15T08:40:09;11.73;;;8.15;;
47784;SDS011;35233;55.686;37.848;2022-11-15T08:42:35;10.90;;;8.05;;
47784;SDS011;35233;55.686;37.848;2022-11-15T08:45:01;12.90;;;7.93;;
47784;SDS011;35233;55.686;37.848;2022-11-15T08:47:27;12.52;;;8.15;;
47784;SDS011;35233;55.686;37.848;2022-11-15T08:49:52;13.40;;;7.88;;
47784;SDS011;35233;55.686;37.848;2022-11-15T08:52:18;12.75;;;7.55;;
47784;SDS011;35233;55.686;37.848;2022-11-15T08:54:43;11.65;;;7.57;;
47784;SDS011;35233;55.686;37.848;2022-11-15T08:57:09;9.52;;;6.78;;
47784;SDS011;35233;55.686;37.848;2022-11-15T08:59:35;12.55;;;7.55;;
47784;SDS011;35233;55.686;37.848;2022-11-15T09:02:02;11.55;;;7.10;;
47784;SDS011;35233;55.686;37.848;2022-11-15T09:04:28;9.70;;;6.68;;
47784;SDS011;35233;55.686;37.848;2022-11-15T09:06:54;9.90;;;6.78;;
47784;SDS011;35233;55.686;37.848;2022-11-15T09:09:19;10.30;;;6.40;;
47784;SDS011;35233;55.686;37.848;2022-11-15T09:11:45;8.88;;;6.32;;
47784;SDS011;35233;55.686;37.848;2022-11-15T09:14:11;9.98;;;6.43;;
47784;SDS011;35233;55.686;37.848;2022-11-15T09:16:37;11.55;;;6.57;;
47784;SDS011;35233;55.686;37.848;2022-11-15T09:19:03;10.30;;;6.55;;
47784;SDS011;35233;55.686;37.848;2022-11-15T09:21:29;10.23;;;6.18;;
47784;SDS011;35233;55.686;37.848;2022-11-15T09:23:55;9.85;;;6.32;;
47784;SDS011;35233;55.686;37.848;2022-11-15T09:26:21;10.30;;;5.50;;
47784;SDS011;35233;55.686;37.848;2022-11-15T09:28:47;12.50;;;6.32;;
47784;SDS011;35233;55.686;37.848;2022-11-15T09:31:13;8.63;;;6.00;;
47784;SDS011;35233;55.686;37.848;2022-11-15T09:33:38;8.93;;;5.93;;
47784;SDS011;35233;55.686;37.848;2022-11-15T09:36:05;9.60;;;5.68;;
47784;SDS011;35233;55.686;37.848;2022-11-15T09:38:32;9.02;;;5.47;;
47784;SDS011;35233;55.686;37.848;2022-11-15T09:48:57;8.20;;;5.32;;
47784;SDS011;35233;55.686;37.848;2022-11-15T09:56:27;10.32;;;4.88;;
47784;SDS011;35233;55.686;37.848;2022-11-15T10:04:26;8.77;;;5.22;;
47784;SDS011;35233;55.686;37.848;2022-11-15T10:07:02;8.40;;;4.43;;
47784;SDS011;35233;55.686;37.848;2022-11-15T10:09:51;6.53;;;4.40;;
47784;SDS011;35233;55.686;37.848;2022-11-15T10:12:22;9.52;;;4.60;;
47784;SDS011;35233;55.686;37.848;2022-11-15T10:14:49;7.93;;;4.75;;
47784;SDS011;35233;55.686;37.848;2022-11-15T10:20:10;7.50;;;4.55;;
47784;SDS011;35233;55.686;37.848;2022-11-15T10:22:46;8.68;;;4.35;;
47784;SDS011;35233;55.686;37.848;2022-11-15T10:30:20;8.40;;;4.93;;
47784;SDS011;35233;55.686;37.848;2022-11-15T10:32:47;8.80;;;4.90;;
47784;SDS011;35233;55.686;37.848;2022-11-15T10:35:18;9.98;;;4.38;;
47784;SDS011;35233;55.686;37.848;2022-11-15T10:37:49;9.55;;;4.50;;
47784;SDS011;35233;55.686;37.848;2022-11-15T10:40:19;6.88;;;4.22;;
47784;SDS011;35233;55.686;37.848;2022-11-15T10:42:47;7.22;;;4.35;;
47784;SDS011;35233;55.686;37.848;2022-11-15T10:45:25;7.28;;;4.40;;
47784;SDS011;35233;55.686;37.848;2022-11-15T10:47:53;6.07;;;4.03;;
47784;SDS011;35233;55.686;37.848;2022-11-15T10:50:28;7.25;;;4.25;;
47784;SDS011;35233;55.686;37.848;2022-11-15T10:52:56;9.73;;;4.43;;
47784;SDS011;35233;55.686;37.848;2022-11-15T10:55:26;6.38;;;3.90;;
47784;SDS011;35233;55.686;37.848;2022-11-15T10:57:56;9.15;;;4.65;;
47784;SDS011;35233;55.686;37.848;2022-11-15T11:00:44;10.15;;;4.13;;
47784;SDS011;35233;55.686;37.848;2022-11-15T11:03:30;8.15;;;4.00;;
47784;SDS011;35233;55.686;37.848;2022-11-15T11:08:34;6.57;;;4.15;;
47784;SDS011;35233;55.686;37.848;2022-11-15T11:11:00;6.47;;;3.85;;
47784;SDS011;35233;55.686;37.848;2022-11-15T11:18:38;8.85;;;4.47;;
47784;SDS011;35233;55.686;37.848;2022-11-15T11:21:13;10.18;;;3.97;;
47784;SDS011;35233;55.686;37.848;2022-11-15T11:23:54;7.90;;;4.15;;
47784;SDS011;35233;55.686;37.848;2022-11-15T11:29:12;11.50;;;4.28;;
47784;SDS011;35233;55.686;37.848;2022-11-15T11:35:02;6.78;;;3.80;;
47784;SDS011;35233;55.686;37.848;2022-11-15T11:37:39;7.22;;;3.88;;
47784;SDS011;35233;55.686;37.848;2022-11-15T11:40:24;8.55;;;3.80;;
47784;SDS011;35233;55.686;37.848;2022-11-15T11:43:08;7.50;;;4.15;;
47784;SDS011;35233;55.686;37.848;2022-11-15T11:51:34;7.03;;;3.70;;
47784;SDS011;35233;55.686;37.848;2022-11-15T11:54:22;7.38;;;3.55;;
47784;SDS011;35233;55.686;37.848;2022-11-15T11:57:17;7.10;;;3.80;;
47784;SDS011;35233;55.686;37.848;2022-11-15T12:00:22;11.50;;;4.03;;
47784;SDS011;35233;55.686;37.848;2022-11-15T12:05:30;8.80;;;3.97;;
47784;SDS011;35233;55.686;37.848;2022-11-15T12:08:36;7.28;;;3.70;;
47784;SDS011;35233;55.686;37.848;2022-11-15T12:11:12;6.75;;;4.05;;
47784;SDS011;35233;55.686;37.848;2022-11-15T12:14:01;6.97;;;4.10;;
47784;SDS011;35233;55.686;37.848;2022-11-15T12:16:31;8.38;;;4.22;;
47784;SDS011;35233;55.686;37.848;2022-11-15T12:19:01;6.40;;;4.13;;
47784;SDS011;35233;55.686;37.848;2022-11-15T12:21:36;6.65;;;3.72;;
47784;SDS011;35233;55.686;37.848;2022-11-15T12:24:26;6.55;;;3.65;;
47784;SDS011;35233;55.686;37.848;2022-11-15T12:27:00;6.03;;;3.58;;
47784;SDS011;35233;55.686;37.848;2022-11-15T12:29:40;8.87;;;3.80;;
47784;SDS011;35233;55.686;37.848;2022-11-15T12:32:36;6.00;;;3.83;;
47784;SDS011;35233;55.686;37.848;2022-11-15T12:35:05;6.07;;;3.30;;
47784;SDS011;35233;55.686;37.848;2022-11-15T12:37:49;7.35;;;3.55;;
47784;SDS011;35233;55.686;37.848;2022-11-15T12:40:21;6.68;;;3.03;;
47784;SDS011;35233;55.686;37.848;2022-11-15T12:45:31;5.93;;;3.67;;
47784;SDS011;35233;55.686;37.848;2022-11-15T12:53:27;6.55;;;3.28;;
47784;SDS011;35233;55.686;37.848;2022-11-15T12:56:08;6.82;;;3.22;;
47784;SDS011;35233;55.686;37.848;2022-11-15T12:58:44;6.15;;;3.40;;
47784;SDS011;35233;55.686;37.848;2022-11-15T13:07:03;6.22;;;3.58;;
47784;SDS011;35233;55.686;37.848;2022-11-15T13:12:00;5.75;;;3.10;;
47784;SDS011;35233;55.686;37.848;2022-11-15T13:14:38;7.80;;;3.20;;
47784;SDS011;35233;55.686;37.848;2022-11-15T13:19:53;8.02;;;3.70;;
47784;SDS011;35233;55.686;37.848;2022-11-15T13:22:22;5.85;;;3.03;;
47784;SDS011;35233;55.686;37.848;2022-11-15T13:25:14;7.40;;;3.70;;
47784;SDS011;35233;55.686;37.848;2022-11-15T13:27:44;6.50;;;3.60;;
47784;SDS011;35233;55.686;37.848;2022-11-15T13:30:21;6.07;;;3.70;;
47784;SDS011;35233;55.686;37.848;2022-11-15T13:32:51;7.28;;;3.42;;
47784;SDS011;35233;55.686;37.848;2022-11-15T13:37:49;6.47;;;3.50;;
47784;SDS011;35233;55.686;37.848;2022-11-15T13:42:55;7.30;;;3.85;;
47784;SDS011;35233;55.686;37.848;2022-11-15T13:45:21;8.30;;;3.70;;
47784;SDS011;35233;55.686;37.848;2022-11-15T13:47:51;8.35;;;4.00;;
47784;SDS011;35233;55.686;37.848;2022-11-15T13:50:20;6.15;;;3.40;;
47784;SDS011;35233;55.686;37.848;2022-11-15T13:52:53;8.35;;;3.90;;
47784;SDS011;35233;55.686;37.848;2022-11-15T13:55:22;7.30;;;4.00;;
47784;SDS011;35233;55.686;37.848;2022-11-15T13:57:49;6.93;;;3.60;;
47784;SDS011;35233;55.686;37.848;2022-11-15T14:00:38;7.25;;;3.45;;
47784;SDS011;35233;55.686;37.848;2022-11-15T14:03:19;5.90;;;3.35;;
47784;SDS011;35233;55.686;37.848;2022-11-15T14:08:37;5.35;;;3.25;;
47784;SDS011;35233;55.686;37.848;2022-11-15T14:11:17;7.47;;;3.40;;
47784;SDS011;35233;55.686;37.848;2022-11-15T14:16:42;6.43;;;3.38;;
47784;SDS011;35233;55.686;37.848;2022-11-15T14:19:11;5.88;;;3.40;;
47784;SDS011;35233;55.686;37.848;2022-11-15T14:24:37;7.50;;;3.25;;
47784;SDS011;35233;55.686;37.848;2022-11-15T14:29:47;6.93;;;3.65;;
47784;SDS011;35233;55.686;37.848;2022-11-15T14:32:15;8.35;;;3.42;;
47784;SDS011;35233;55.686;37.848;2022-11-15T14:34:46;5.55;;;3.67;;
47784;SDS011;35233;55.686;37.848;2022-11-15T14:37:20;7.03;;;3.50;;
47784;SDS011;35233;55.686;37.848;2022-11-15T14:42:13;7.20;;;3.60;;
47784;SDS011;35233;55.686;37.848;2022-11-15T14:44:39;7.07;;;3.67;;
47784;SDS011;35233;55.686;37.848;2022-11-15T14:47:04;6.68;;;3.75;;
47784;SDS011;35233;55.686;37.848;2022-11-15T14:49:30;7.65;;;3.22;;
47784;SDS011;35233;55.686;37.848;2022-11-15T14:51:55;6.35;;;3.55;;
47784;SDS011;35233;55.686;37.848;2022-11-15T14:54:21;6.43;;;3.60;;
47784;SDS011;35233;55.686;37.848;2022-11-15T14:56:47;7.38;;;4.00;;
47784;SDS011;35233;55.686;37.848;2022-11-15T14:59:12;7.18;;;3.60;;
47784;SDS011;35233;55.686;37.848;2022-11-15T15:01:38;8.77;;;3.50;;
47784;SDS011;35233;55.686;37.848;2022-11-15T15:04:03;6.40;;;3.75;;
47784;SDS011;35233;55.686;37.848;2022-11-15T15:06:28;8.73;;;4.18;;
47784;SDS011;35233;55.686;37.848;2022-11-15T15:08:55;6.30;;;3.60;;
47784;SDS011;35233;55.686;37.848;2022-11-15T15:13:52;10.27;;;4.13;;
47784;SDS011;35233;55.686;37.848;2022-11-15T15:16:18;7.05;;;3.90;;
47784;SDS011;35233;55.686;37.848;2022-11-15T15:18:44;6.68;;;3.60;;
47784;SDS011;35233;55.686;37.848;2022-11-15T15:21:23;6.18;;;3.92;;
47784;SDS011;35233;55.686;37.848;2022-11-15T15:23:50;5.63;;;3.47;;
47784;SDS011;35233;55.686;37.848;2022-11-15T15:26:16;8.23;;;4.00;;
47784;SDS011;35233;55.686;37.848;2022-11-15T15:28:42;6.25;;;3.60;;
47784;SDS011;35233;55.686;37.848;2022-11-15T15:31:08;8.70;;;3.95;;
47784;SDS011;35233;55.686;37.848;2022-11-15T15:33:35;8.93;;;4.38;;
47784;SDS011;35233;55.686;37.848;2022-11-15T15:36:01;7.47;;;4.20;;
47784;SDS011;35233;55.686;37.848;2022-11-15T15:38:26;5.97;;;4.05;;
47784;SDS011;35233;55.686;37.848;2022-11-15T15:40:52;8.25;;;4.40;;
47784;SDS011;35233;55.686;37.848;2022-11-15T15:43:18;8.13;;;4.40;;
47784;SDS011;35233;55.686;37.848;2022-11-15T15:45:43;7.57;;;4.32;;
47784;SDS011;35233;55.686;37.848;2022-11-15T15:48:16;7.18;;;4.22;;
47784;SDS011;35233;55.686;37.848;2022-11-15T15:50:42;7.43;;;4.53;;
47784;SDS011;35233;55.686;37.848;2022-11-15T15:53:08;6.82;;;4.78;;
47784;SDS011;35233;55.686;37.848;2022-11-15T15:55:35;9.60;;;4.78;;
47784;SDS011;35233;55.686;37.848;2022-11-15T15:58:01;7.80;;;4.60;;
47784;SDS011;35233;55.686;37.848;2022-11-15T16:00:27;11.05;;;4.82;;
47784;SDS011;35233;55.686;37.848;2022-11-15T16:02:54;6.88;;;4.18;;
47784;SDS011;35233;55.686;37.848;2022-11-15T16:05:20;7.82;;;4.25;;
47784;SDS011;35233;55.686;37.848;2022-11-15T16:07:46;11.35;;;4.40;;
47784;SDS011;35233;55.686;37.848;2022-11-15T16:10:22;8.43;;;4.28;;
47784;SDS011;35233;55.686;37.848;2022-11-15T16:12:53;9.43;;;4.32;;
47784;SDS011;35233;55.686;37.848;2022-11-15T16:15:20;9.82;;;4.90;;
47784;SDS011;35233;55.686;37.848;2022-11-15T16:17:47;8.73;;;4.78;;
47784;SDS011;35233;55.686;37.848;2022-11-15T16:20:21;6.30;;;4.50;;
47784;SDS011;35233;55.686;37.848;2022-11-15T16:22:56;10.40;;;4.72;;
47784;SDS011;35233;55.686;37.848;2022-11-15T16:25:22;12.43;;;4.90;;
47784;SDS011;35233;55.686;37.848;2022-11-15T16:27:48;9.77;;;5.10;;
47784;SDS011;35233;55.686;37.848;2022-11-15T16:30:15;8.93;;;4.82;;
47784;SDS011;35233;55.686;37.848;2022-11-15T16:32:42;9.77;;;4.90;;
47784;SDS011;35233;55.686;37.848;2022-11-15T16:35:14;9.35;;;5.50;;
47784;SDS011;35233;55.686;37.848;2022-11-15T16:37:41;8.27;;;5.05;;
47784;SDS011;35233;55.686;37.848;2022-11-15T16:40:30;12.57;;;5.10;;
47784;SDS011;35233;55.686;37.848;2022-11-15T16:42:56;22.83;;;4.97;;
47784;SDS011;35233;55.686;37.848;2022-11-15T16:45:24;10.88;;;4.78;;
47784;SDS011;35233;55.686;37.848;2022-11-15T16:47:50;7.85;;;4.63;;
47784;SDS011;35233;55.686;37.848;2022-11-15T16:50:21;7.80;;;4.78;;
47784;SDS011;35233;55.686;37.848;2022-11-15T16:52:52;11.53;;;4.73;;
47784;SDS011;35233;55.686;37.848;2022-11-15T16:55:19;8.93;;;4.78;;
47784;SDS011;35233;55.686;37.848;2022-11-15T16:57:49;6.65;;;3.85;;
47784;SDS011;35233;55.686;37.848;2022-11-15T17:00:17;7.22;;;4.50;;
47784;SDS011;35233;55.686;37.848;2022-11-15T17:02:44;8.10;;;4.82;;